Time,TemperatureF,DewpointF,PressureIn,WindDirection,WindDirectionDegrees,WindSpeedMPH,WindSpeedGustMPH,Humidity,HourlyPrecipIn,Conditions,Clouds,dailyrainin,SolarRadiationWatts/m^2,SoftwareType,DateUTC
2013-09-17 00:00:00,41.0,39.0,-100.00,SE,135,0.0,-999.0,92,-99.99,,,-99.99,0.000000,,2013-09-17 04:00:00,
2013-09-17 00:44:00,41.0,39.0,-100.00,SE,135,0.0,-999.0,92,-99.99,,,-99.99,0.000000,,2013-09-17 04:44:00,
2013-09-17 00:54:00,41.0,39.0,-100.00,SE,135,0.0,-999.0,92,-99.99,,,-99.99,0.000000,,2013-09-17 04:54:00,
2013-09-17 01:00:00,40.0,38.0,-100.00,ENE,67,0.0,-999.0,91,-99.99,,,-99.99,0.000000,,2013-09-17 05:00:00,
2013-09-17 01:42:00,40.0,38.0,-100.00,ENE,67,0.0,-999.0,91,-99.99,,,-99.99,0.000000,,2013-09-17 05:42:00,
2013-09-17 01:52:00,40.0,38.0,-100.00,ENE,67,0.0,-999.0,91,-99.99,,,-99.99,0.000000,,2013-09-17 05:52:00,
2013-09-17 02:00:00,39.0,37.0,-100.00,ENE,67,0.0,-999.0,92,-99.99,,,-99.99,0.000000,,2013-09-17 06:00:00,
2013-09-17 02:42:00,39.0,37.0,-100.00,ENE,67,0.0,-999.0,92,-99.99,,,-99.99,0.000000,,2013-09-17 06:42:00,
2013-09-17 02:52:00,39.0,37.0,-100.00,ENE,67,0.0,-999.0,92,-99.99,,,-99.99,0.000000,,2013-09-17 06:52:00,
2013-09-17 04:00:00,37.0,36.0,-100.00,ESE,112,0.0,-999.0,95,-99.99,,,-99.99,0.000000,,2013-09-17 08:00:00,
2013-09-17 04:42:00,37.0,36.0,-100.00,ESE,112,0.0,-999.0,95,-99.99,,,-99.99,0.000000,,2013-09-17 08:42:00,
2013-09-17 04:52:00,37.0,36.0,-100.00,ESE,112,0.0,-999.0,95,-99.99,,,-99.99,0.000000,,2013-09-17 08:52:00,
2013-09-17 05:00:00,36.0,35.0,-100.00,NE,45,0.0,-999.0,96,-99.99,,,-99.99,0.000000,,2013-09-17 09:00:00,
2013-09-17 05:43:00,36.0,35.0,-100.00,NE,45,0.0,-999.0,96,-99.99,,,-99.99,0.000000,,2013-09-17 09:43:00,
2013-09-17 05:53:00,36.0,35.0,-100.00,NE,45,0.0,-999.0,96,-99.99,,,-99.99,0.000000,,2013-09-17 09:53:00,
2013-09-17 06:00:00,36.0,35.0,-100.00,ESE,112,0.0,-999.0,97,-99.99,,,-99.99,0.000000,,2013-09-17 10:00:00,
2013-09-17 06:42:00,36.0,35.0,-100.00,ESE,112,0.0,-999.0,97,-99.99,,,-99.99,0.000000,,2013-09-17 10:42:00,
2013-09-17 06:53:00,36.0,35.0,-100.00,ESE,112,0.0,-999.0,97,-99.99,,,-99.99,0.000000,,2013-09-17 10:53:00,
2013-09-17 07:00:00,35.0,34.0,-100.00,East,90,0.0,-999.0,97,-99.99,,,-99.99,0.000000,,2013-09-17 11:00:00,
2013-09-17 07:43:00,35.0,34.0,-100.00,East,90,0.0,-999.0,97,-99.99,,,-99.99,0.000000,,2013-09-17 11:43:00,
2013-09-17 07:52:00,35.0,34.0,-100.00,East,90,0.0,-999.0,97,-99.99,,,-99.99,0.000000,,2013-09-17 11:52:00,
2013-09-17 08:00:00,34.0,34.0,-100.00,East,90,0.0,-999.0,98,-99.99,,,-99.99,6.960000,,2013-09-17 12:00:00,
2013-09-17 08:42:00,34.0,34.0,-100.00,East,90,0.0,-999.0,98,-99.99,,,-99.99,6.960000,,2013-09-17 12:42:00,
2013-09-17 08:52:00,34.0,34.0,-100.00,East,90,0.0,-999.0,98,-99.99,,,-99.99,6.960000,,2013-09-17 12:52:00,
2013-09-17 09:00:00,39.0,38.0,-100.00,East,90,0.0,-999.0,98,-99.99,,,-99.99,133.399994,,2013-09-17 13:00:00,
2013-09-17 09:42:00,39.0,38.0,-100.00,East,90,0.0,-999.0,98,-99.99,,,-99.99,133.399994,,2013-09-17 13:42:00,
2013-09-17 09:52:00,39.0,38.0,-100.00,East,90,0.0,-999.0,98,-99.99,,,-99.99,133.399994,,2013-09-17 13:52:00,
2013-09-17 10:00:00,47.0,44.0,-100.00,ENE,67,1.0,-999.0,88,-99.99,,,-99.99,307.399994,,2013-09-17 14:00:00,
2013-09-17 10:42:00,47.0,44.0,-100.00,ENE,67,1.0,-999.0,88,-99.99,,,-99.99,307.399994,,2013-09-17 14:42:00,
2013-09-17 10:52:00,47.0,44.0,-100.00,ENE,67,1.0,-999.0,88,-99.99,,,-99.99,307.399994,,2013-09-17 14:52:00,
2013-09-17 11:00:00,54.0,45.0,-100.00,East,90,1.0,-999.0,74,-99.99,,,-99.99,461.679993,,2013-09-17 15:00:00,
2013-09-17 11:44:00,54.0,45.0,-100.00,East,90,1.0,-999.0,74,-99.99,,,-99.99,461.679993,,2013-09-17 15:44:00,
2013-09-17 11:53:00,54.0,45.0,-100.00,East,90,1.0,-999.0,74,-99.99,,,-99.99,461.679993,,2013-09-17 15:53:00,
2013-09-17 15:00:00,64.0,43.0,-100.00,SE,135,2.0,-999.0,47,-99.99,,,-99.99,578.840027,,2013-09-17 19:00:00,
2013-09-17 15:42:00,64.0,43.0,-100.00,SE,135,2.0,-999.0,47,-99.99,,,-99.99,578.840027,,2013-09-17 19:42:00,
2013-09-17 15:52:00,64.0,43.0,-100.00,SE,135,2.0,-999.0,47,-99.99,,,-99.99,578.840027,,2013-09-17 19:52:00,
2013-09-17 18:00:00,67.0,48.0,-100.00,SE,135,1.0,-999.0,49,-99.99,,,-99.99,295.799988,,2013-09-17 22:00:00,
2013-09-17 18:44:00,67.0,48.0,-100.00,SE,135,1.0,-999.0,49,-99.99,,,-99.99,295.799988,,2013-09-17 22:44:00,
2013-09-17 18:53:00,67.0,48.0,-100.00,SE,135,1.0,-999.0,49,-99.99,,,-99.99,295.799988,,2013-09-17 22:53:00,
2013-09-17 20:00:00,58.0,48.0,-100.00,South,180,0.0,-999.0,70,-99.99,,,-99.99,16.240000,,2013-09-18 00:00:00,
2013-09-17 20:42:00,58.0,48.0,-100.00,South,180,0.0,-999.0,70,-99.99,,,-99.99,16.240000,,2013-09-18 00:42:00,
2013-09-17 20:52:00,58.0,48.0,-100.00,South,180,0.0,-999.0,70,-99.99,,,-99.99,16.240000,,2013-09-18 00:52:00,
2013-09-17 21:00:00,53.0,47.0,-100.00,ESE,112,0.0,-999.0,78,-99.99,,,-99.99,0.000000,,2013-09-18 01:00:00,
2013-09-17 21:42:00,53.0,47.0,-100.00,ESE,112,0.0,-999.0,78,-99.99,,,-99.99,0.000000,,2013-09-18 01:42:00,
2013-09-17 21:53:00,53.0,47.0,-100.00,ESE,112,0.0,-999.0,78,-99.99,,,-99.99,0.000000,,2013-09-18 01:53:00,
2013-09-17 22:00:00,51.0,47.0,-100.00,East,90,0.0,-999.0,85,-99.99,,,-99.99,0.000000,,2013-09-18 02:00:00,
2013-09-17 22:43:00,51.0,47.0,-100.00,East,90,0.0,-999.0,85,-99.99,,,-99.99,0.000000,,2013-09-18 02:43:00,
2013-09-17 22:52:00,51.0,47.0,-100.00,East,90,0.0,-999.0,85,-99.99,,,-99.99,0.000000,,2013-09-18 02:52:00,
2013-09-17 23:00:00,49.0,47.0,-100.00,ENE,67,0.0,-999.0,90,-99.99,,,-99.99,0.000000,,2013-09-18 03:00:00,
2013-09-17 23:45:00,49.0,47.0,-100.00,ENE,67,0.0,-999.0,90,-99.99,,,-99.99,0.000000,,2013-09-18 03:45:00,
2013-09-17 23:55:00,49.0,47.0,-100.00,ENE,67,0.0,-999.0,90,-99.99,,,-99.99,0.000000,,2013-09-18 03:55:00,